DW0915 Weather Reports


Display with metric or nautical units.
time (UTC)temp
F
wind
direction
speed
MPH
gust
MPH
rain 1hr
in
rain 24hr
in
rain mn
in
humidity
%
barometer
mb
20181213063024 54 254 0.0 0.0 0.00 0.00 0.00 90 1022.5
20181213061552 54 254 0.0 0.0 0.00 0.00 0.00 90 1022.4
20181213060038 55 254 0.0 0.0 0.00 0.00 0.00 90 1022.3
20181213054542 55 254 0.0 0.0 0.00 0.00 0.00 90 1022.3
20181213053123 55 254 0.0 0.0 0.00 0.00 0.00 90 1022.4
20181213051527 54 254 0.0 0.0 0.00 0.00 0.00 89 1022.3
20181213050051 53 254 0.0 0.0 0.00 0.00 0.00 89 1022.1
20181213044530 53 254 0.0 0.0 0.00 0.00 0.00 88 1022.1
20181213043044 52 254 0.0 0.0 0.00 0.00 0.00 88 1022.1
20181213041519 51 254 0.0 0.0 0.00 0.00 0.00 87 1022.1
20181213040020 52 254 0.0 0.0 0.00 0.00 0.00 87 1022.0
20181213034523 52 254 0.0 0.0 0.00 0.00 0.00 86 1021.9
20181213033029 53 254 0.0 0.0 0.00 0.00 0.00 86 1021.6
20181213031513 53 254 0.0 0.0 0.00 0.00 0.00 85 1021.6
20181213030015 54 254 0.0 0.0 0.00 0.00 0.00 84 1021.2
20181213024509 55 254 0.0 0.0 0.00 0.00 0.00 83 1021.2
20181213023016 56 254 0.0 0.0 0.00 0.00 0.00 82 1021.1
20181213021510 57 254 0.0 0.0 0.00 0.00 0.00 82 1021.2
20181213020011 58 254 0.0 0.0 0.00 0.00 0.00 80 1020.8
20181213014501 59 254 0.0 0.0 0.00 0.00 0.00 79 1020.4
20181213013110 59 254 0.0 0.0 0.00 0.00 0.00 77 1020.0
20181213011641 61 254 0.0 0.0 0.00 0.00 0.00 75 1020.0
20181213010133 62 254 0.0 0.0 0.00 0.00 0.00 69 1019.7
20181213004701 63 254 0.0 0.0 0.00 0.00 0.00 66 1019.4
20181213003234 64 254 0.0 0.0 0.00 0.00 0.00 63 1019.0
20181213001709 65 254 0.0 0.0 0.00 0.00 0.00 61 1019.1
20181213000134 66 252 0.0 0.0 0.00 0.00 0.00 59 1018.9
20181212234635 67 252 0.0 0.0 0.00 0.00 0.00 57 1018.9
20181212233131 67 250 0.0 0.0 0.00 0.00 0.00 52 1018.8
20181212231646 68 250 0.0 0.0 0.00 0.00 0.00 47 1018.6
20181212230137 68 249 0.0 0.0 0.00 0.00 0.00 47 1018.6
20181212224611 68 247 0.0 0.0 0.00 0.00 0.00 46 1018.6
20181212223256 68 247 0.0 0.0 0.00 0.00 0.00 47 1018.6
20181212221645 67 247 0.0 0.0 0.00 0.00 0.00 47 1018.5
20181212220235 66 246 0.0 0.0 0.00 0.00 0.00 49 1018.5
20181212214649 66 250 0.0 0.0 0.00 0.00 0.00 49 1018.5
20181212213138 66 238 1.0 0.0 0.00 0.00 0.00 50 1018.7
20181212211607 66 227 1.0 0.0 0.00 0.00 0.00 49 1018.6
20181212210210 66 254 0.0 0.0 0.00 0.00 0.00 47 1018.9
20181212204623 67 217 0.0 0.0 0.00 0.00 0.00 49 1018.9
20181212203110 67 281 0.0 0.0 0.00 0.00 0.00 45 1019.1
20181212201613 67 296 0.0 0.0 0.00 0.00 0.00 43 1018.6
20181212200143 66 297 0.0 0.0 0.00 0.00 0.00 45 1018.9
20181212194615 66 299 0.0 0.0 0.00 0.00 0.00 48 1018.8
20181212193056 64 299 0.0 0.0 0.00 0.00 0.00 49 1018.8
20181212191558 64 300 0.0 0.0 0.00 0.00 0.00 49 1018.8
20181212190100 63 303 0.0 0.0 0.00 0.00 0.00 52 1019.0
20181212184620 61 303 0.0 0.0 0.00 0.00 0.00 51 1018.9
20181212183114 61 64 0.0 0.0 0.00 0.00 0.00 50 1019.1
20181212181623 61 61 0.0 0.0 0.00 0.00 0.00 49 1019.1
20181212180031 61 62 0.0 0.0 0.00 0.00 0.00 48 1019.2
20181212174603 60 62 0.0 0.0 0.00 0.00 0.00 49 1019.4
20181212173026 59 62 0.0 0.0 0.00 0.00 0.00 54 1019.4
20181212171521 55 49 0.0 0.0 0.00 0.00 0.00 60 1019.3
20181212170014 54 49 0.0 0.0 0.00 0.00 0.00 60 1019.1
20181212164527 53 48 0.0 0.0 0.00 0.00 0.00 63 1019.4
20181212163007 53 40 0.0 0.0 0.00 0.00 0.00 64 1019.3
20181212161706 50 26 0.0 0.0 0.00 0.00 0.00 69 1018.9
20181212160217 48 26 0.0 0.0 0.00 0.00 0.00 69 1019.0
20181212154720 47 305 0.0 0.0 0.00 0.00 0.00 72 1018.7
20181212153228 46 305 0.0 0.0 0.00 0.00 0.00 72 1018.6
20181212151643 45 304 0.0 0.0 0.00 0.00 0.00 73 1018.9
20181212150140 45 304 0.0 0.0 0.00 0.00 0.00 73 1018.7
20181212144636 45 305 0.0 0.0 0.00 0.00 0.00 73 1018.5
20181212143120 45 305 0.0 0.0 0.00 0.00 0.00 73 1018.4
20181212141642 45 305 0.0 0.0 0.00 0.00 0.00 74 1018.5
20181212140211 45 305 0.0 0.0 0.00 0.00 0.00 74 1018.5
20181212134622 45 305 0.0 0.0 0.00 0.00 0.00 73 1018.4
20181212133140 46 304 0.0 0.0 0.00 0.00 0.00 72 1018.2
20181212131613 45 304 0.0 0.0 0.00 0.00 0.00 75 1018.2
20181212130110 44 304 0.0 0.0 0.00 0.00 0.00 76 1017.9
20181212124609 44 305 0.0 0.0 0.00 0.00 0.00 77 1017.7
20181212123123 44 305 0.0 0.0 0.00 0.00 0.00 76 1018.2
20181212121629 44 305 0.0 0.0 0.00 0.00 0.00 76 1017.8
20181212120140 44 305 0.0 0.0 0.00 0.00 0.00 75 1017.6
20181212114622 45 305 0.0 0.0 0.00 0.00 0.00 74 1017.7
20181212113137 45 305 0.0 0.0 0.00 0.00 0.00 75 1017.5
20181212111612 44 304 0.0 0.0 0.00 0.00 0.00 75 1017.9
20181212110100 45 305 0.0 0.0 0.00 0.00 0.00 74 1017.9
20181212104639 45 305 0.0 0.0 0.00 0.00 0.00 72 1018.2
20181212103057 46 305 0.0 0.0 0.00 0.00 0.00 71 1018.0
20181212101607 47 305 0.0 0.0 0.00 0.00 0.00 70 1017.9
20181212100110 47 305 0.0 0.0 0.00 0.00 0.00 69 1018.0
20181212094532 48 305 0.0 0.0 0.00 0.00 0.00 67 1018.0
20181212093037 49 304 0.0 0.0 0.00 0.00 0.00 67 1018.1
20181212091539 48 304 0.0 0.0 0.00 0.00 0.00 68 1018.2
20181212090051 47 305 0.0 0.0 0.00 0.00 0.00 70 1018.0
20181212084538 47 304 0.0 0.0 0.00 0.00 0.00 70 1018.0
20181212083105 47 304 0.0 0.0 0.00 0.00 0.00 70 1018.2
20181212081527 47 304 0.0 0.0 0.00 0.00 0.00 71 1018.1
20181212080107 47 304 0.0 0.0 0.00 0.00 0.00 72 1018.0
20181212074555 48 304 0.0 0.0 0.00 0.00 0.00 72 1018.2
20181212073039 48 305 0.0 0.0 0.00 0.00 0.00 71 1018.3
20181212071553 49 305 0.0 0.0 0.00 0.00 0.00 71 1018.2
20181212070027 49 305 0.0 0.0 0.00 0.00 0.00 71 1018.2
20181212064532 50 305 0.0 0.0 0.00 0.00 0.00 70 1018.2